createdAt,value
2022-09-26T00:05:15.129Z,78.54
2022-09-26T00:12:01.538Z,78.43
2022-09-26T00:19:04.226Z,78.43
2022-09-26T00:26:06.618Z,78.63
2022-09-26T00:33:09.937Z,78.51
2022-09-26T00:40:11.371Z,78.31
2022-09-26T00:47:08.908Z,78.22
2022-09-26T00:54:10.935Z,78.14
2022-09-26T01:01:00.363Z,78.04
2022-09-26T01:07:50.820Z,78.00
2022-09-26T01:14:39.990Z,77.99
2022-09-26T01:21:24.280Z,78.01
2022-09-26T01:28:42.824Z,78.09
2022-09-26T01:36:03.656Z,78.35
2022-09-26T01:43:23.804Z,78.44
2022-09-26T01:50:12.475Z,78.56
2022-09-26T01:57:12.858Z,78.61
2022-09-26T02:04:15.825Z,78.62
2022-09-26T02:11:09.819Z,78.79
2022-09-26T02:18:12.915Z,78.83
2022-09-26T02:25:16.284Z,78.86
2022-09-26T02:32:09.506Z,78.99
2022-09-26T02:39:12.506Z,78.86
2022-09-26T02:46:15.243Z,78.84
2022-09-26T02:53:15.921Z,78.81
2022-09-26T03:00:27.795Z,78.86
2022-09-26T03:07:24.665Z,78.75
2022-09-26T03:14:34.572Z,78.85
2022-09-26T03:21:37.677Z,78.82
2022-09-26T03:28:40.638Z,78.65
2022-09-26T03:35:32.879Z,78.64
2022-09-26T03:42:36.467Z,78.63
2022-09-26T03:49:39.774Z,78.55
2022-09-26T03:56:42.806Z,78.63
2022-09-26T04:03:36.292Z,78.68
2022-09-26T04:10:39.608Z,78.67
2022-09-26T04:17:42.440Z,78.80
2022-09-26T04:24:44.368Z,79.15
2022-09-26T04:31:37.711Z,79.29
2022-09-26T04:38:40.602Z,79.50
2022-09-26T04:44:53.969Z,79.29
2022-09-26T04:50:47.017Z,79.14
2022-09-26T04:57:50.206Z,79.06
2022-09-26T05:04:45.964Z,78.94
2022-09-26T05:10:31.634Z,79.07
2022-09-26T05:17:18.119Z,79.03
2022-09-26T05:23:10.764Z,79.14
2022-09-26T05:29:08.322Z,79.01
2022-09-26T05:34:54.352Z,79.02
2022-09-26T05:41:01.920Z,79.04
2022-09-26T05:46:48.042Z,79.01
2022-09-26T05:52:43.955Z,78.83
2022-09-26T05:59:31.961Z,78.89
2022-09-26T06:05:28.342Z,78.74
2022-09-26T06:11:15.958Z,78.63
2022-09-26T06:16:46.385Z,78.61
2022-09-26T06:22:34.135Z,78.71
2022-09-26T06:28:00.121Z,78.46
2022-09-26T06:34:43.601Z,78.36
2022-09-26T06:40:57.403Z,78.13
2022-09-26T06:47:40.421Z,78.11
2022-09-26T06:54:36.760Z,78.19
2022-09-26T07:01:28.795Z,78.28
2022-09-26T07:09:00.475Z,78.26
2022-09-26T07:14:36.400Z,78.18
2022-09-26T07:20:16.732Z,78.17
2022-09-26T07:25:56.075Z,78.17
2022-09-26T07:31:29.034Z,78.01
2022-09-26T07:38:30.730Z,77.97
2022-09-26T07:45:33.997Z,77.93
2022-09-26T07:52:37.373Z,77.82
2022-09-26T07:59:36.547Z,77.80
2022-09-26T08:06:39.657Z,77.65
2022-09-26T08:12:18.491Z,77.14
2022-09-26T08:19:16.108Z,76.96
2022-09-26T08:26:11.021Z,76.93
2022-09-26T08:32:47.393Z,76.70
2022-09-26T08:38:27.370Z,76.68
2022-09-26T08:45:47.497Z,76.54
2022-09-26T08:52:22.713Z,76.24
2022-09-26T08:58:14.706Z,76.13
2022-09-26T09:04:13.350Z,76.27
2022-09-26T09:09:41.595Z,75.90
2022-09-26T09:16:53.823Z,75.75
2022-09-26T09:24:23.877Z,75.69
2022-09-26T09:31:32.867Z,75.71
2022-09-26T09:38:27.132Z,75.45
2022-09-26T09:45:35.999Z,74.53
2022-09-26T09:52:35.707Z,74.33
2022-09-26T09:59:50.953Z,74.09
2022-09-26T10:06:50.054Z,74.00
2022-09-26T10:12:44.589Z,73.93
2022-09-26T10:19:41.462Z,73.88
2022-09-26T10:26:10.244Z,73.79
2022-09-26T10:33:16.120Z,73.36
2022-09-26T10:39:52.193Z,73.28
2022-09-26T10:46:25.494Z,72.88
2022-09-26T10:53:19.525Z,72.75
2022-09-26T11:00:12.424Z,72.34
2022-09-26T11:07:13.096Z,71.70
2022-09-26T11:14:28.294Z,71.19
2022-09-26T11:21:28.768Z,70.47
2022-09-26T11:28:43.837Z,69.24
2022-09-26T11:35:51.690Z,68.57
2022-09-26T11:43:16.075Z,68.14
2022-09-26T11:51:02.301Z,67.24
2022-09-26T11:58:11.495Z,66.88
2022-09-26T12:05:10.247Z,66.88
2022-09-26T12:11:38.312Z,66.28
2022-09-26T12:18:27.700Z,65.96
2022-09-26T12:24:37.260Z,65.99
2022-09-26T12:30:11.241Z,65.88
2022-09-26T12:35:44.284Z,66.26
2022-09-26T12:41:38.401Z,66.11
2022-09-26T12:48:50.974Z,65.72
2022-09-26T12:55:23.620Z,65.67
2022-09-26T13:02:12.205Z,65.64
2022-09-26T13:09:00.826Z,66.02
2022-09-26T13:14:55.283Z,66.21
2022-09-26T13:21:51.368Z,65.91
2022-09-26T13:29:16.284Z,65.93
2022-09-26T13:36:08.295Z,65.38
2022-09-26T13:42:42.784Z,65.63
2022-09-26T13:49:53.921Z,65.71
2022-09-26T13:55:55.280Z,65.42
2022-09-26T14:02:28.076Z,65.63
2022-09-26T14:09:20.177Z,66.00
2022-09-26T14:16:35.815Z,66.14
2022-09-26T14:23:38.919Z,66.36
2022-09-26T14:30:47.606Z,66.94
2022-09-26T14:38:05.467Z,65.33
2022-09-26T14:45:08.715Z,65.24
2022-09-26T14:51:26.657Z,67.20
2022-09-26T14:57:08.011Z,68.93
2022-09-26T15:02:41.342Z,70.32
2022-09-26T15:09:38.233Z,71.33
2022-09-26T15:17:01.967Z,72.21
2022-09-26T15:23:45.420Z,73.47
2022-09-26T15:30:57.709Z,73.72
2022-09-26T15:37:42.366Z,73.94
2022-09-26T15:44:45.077Z,74.65
2022-09-26T15:52:00.087Z,75.12
2022-09-26T15:58:18.621Z,74.71
2022-09-26T16:05:22.087Z,74.69
2022-09-26T16:11:53.983Z,75.38
2022-09-26T16:18:22.606Z,76.19
2022-09-26T16:25:22.736Z,76.41
2022-09-26T16:32:05.010Z,76.40
2022-09-26T16:38:29.980Z,76.85
2022-09-26T16:45:14.111Z,76.85
2022-09-26T16:51:39.522Z,76.96
2022-09-26T16:57:54.265Z,77.28
2022-09-26T17:03:29.960Z,77.21
2022-09-26T17:09:01.971Z,77.32
2022-09-26T17:16:08.246Z,77.89
2022-09-26T17:23:34.851Z,77.96
2022-09-26T17:30:46.817Z,78.00
2022-09-26T17:37:12.362Z,78.43
2022-09-26T17:43:12.891Z,78.87
2022-09-26T17:49:06.356Z,78.65
2022-09-26T17:55:07.621Z,78.65
2022-09-26T18:00:40.478Z,78.86
2022-09-26T18:07:16.469Z,78.88
2022-09-26T18:14:19.879Z,79.21
2022-09-26T18:20:33.217Z,79.08
2022-09-26T18:26:05.246Z,78.60
2022-09-26T18:31:46.350Z,78.25
2022-09-26T18:38:31.818Z,78.13
2022-09-26T18:45:14.876Z,78.46
2022-09-26T18:52:18.078Z,78.89
2022-09-26T18:58:19.411Z,78.84
2022-09-26T19:05:22.867Z,78.60
2022-09-26T19:12:26.338Z,78.42
2022-09-26T19:18:40.798Z,78.50
2022-09-26T19:25:35.462Z,78.38
2022-09-26T19:32:38.825Z,78.85
2022-09-26T19:38:33.847Z,78.71
2022-09-26T19:45:26.986Z,79.12
2022-09-26T19:52:32.760Z,79.24
2022-09-26T19:58:38.863Z,78.78
2022-09-26T20:04:08.481Z,78.47
2022-09-26T20:10:54.269Z,78.85
2022-09-26T20:17:02.796Z,79.21
2022-09-26T20:22:34.619Z,78.86
2022-09-26T20:28:23.218Z,78.35
2022-09-26T20:34:00.250Z,78.26
2022-09-26T20:39:27.449Z,78.11
2022-09-26T20:45:02.636Z,78.14
2022-09-26T20:51:34.061Z,78.32
2022-09-26T20:57:30.504Z,78.43
2022-09-26T21:03:11.610Z,78.96
2022-09-26T21:08:36.837Z,79.63
2022-09-26T21:14:32.721Z,79.33
2022-09-26T21:19:59.245Z,78.87
2022-09-26T21:27:02.246Z,79.63
2022-09-26T21:33:10.289Z,79.52
2022-09-26T21:39:33.384Z,79.03
2022-09-26T21:45:27.246Z,78.67
2022-09-26T21:52:15.119Z,78.94
2022-09-26T21:59:11.869Z,79.18
2022-09-26T22:06:15.182Z,78.43
2022-09-26T22:13:01.361Z,78.08
2022-09-26T22:18:35.912Z,78.36
2022-09-26T22:25:22.217Z,78.36
2022-09-26T22:31:25.607Z,78.29
2022-09-26T22:36:55.932Z,78.47
2022-09-26T22:43:48.176Z,78.68
2022-09-26T22:50:06.011Z,78.15
2022-09-26T22:56:54.658Z,78.32
2022-09-26T23:02:19.170Z,78.18
2022-09-26T23:08:05.582Z,78.55
2022-09-26T23:14:48.594Z,78.10
2022-09-26T23:21:54.561Z,78.85
2022-09-26T23:27:48.334Z,78.56
2022-09-26T23:33:42.651Z,78.58
2022-09-26T23:40:12.412Z,78.63
2022-09-26T23:46:26.619Z,78.36
2022-09-26T23:52:41.672Z,78.80
2022-09-26T23:59:07.169Z,78.65
